Weather - Helsinki Query any day in the database

Current weather  

Weather data for a selected day (2006-01-01 -2020-10-30)
Enter date:     <-     scroll days         ->
day curves
Low temperature°C -17.009:50
High temperature°C -12.023:50
Low wind chill°C -22.709:50
Average temperature°C -14.6 
High wind speed (10 min) m/s 3.600:50
Low pressurehPa 1028.002:20
High pressurehPa 1032.016:20
Low R.H% 7213:20
High R.H% 8523:50
Day weather data as a table
Date Time Temp
°C
Chill
°C
Pressure
hPA
Wind
m/s
Hum
%
Precip
mm
2015-01-06 23:50:00 -12.0  -17.5  1029.0 2.7 85 -
2015-01-06 23:20:00 -12.0  -15.0  1030.0 1.3 85 -
2015-01-06 22:50:00 -12.0  -13.8  1030.0 0.9 85 -
2015-01-06 22:20:00 -14.0  -17.2  1030.0 1.3 84 -
2015-01-06 21:50:00 -14.0  -14.0  1030.0 0.4 84 -
2015-01-06 21:20:00 -15.0  -15.0  1030.0 0.4 84 -
2015-01-06 20:50:00 -16.0  -18.2  1030.0 0.9 84 -
2015-01-06 20:20:00 -15.0  -17.1  1030.0 0.9 84 -
2015-01-06 19:50:00 -16.0  -19.5  1030.0 1.3 84 -
2015-01-06 19:20:00 -16.0  -18.2  1031.0 0.9 84 -
2015-01-06 18:50:00 -15.0  -17.1  1031.0 0.9 84 -
2015-01-06 18:20:00 -16.0  -18.2  1031.0 0.9 84 -
2015-01-06 17:50:00 -15.0  -17.1  1031.0 0.9 84 -
2015-01-06 17:20:00 -15.0  -17.1  1031.0 0.9 84 -
2015-01-06 16:50:00 -15.0  -15.0  1031.0 0.4 84 -
2015-01-06 16:20:00 -14.0  -14.0  1032.0 0.4 84 -
2015-01-06 15:50:00 -14.0  -17.2  1032.0 1.3 84 -
2015-01-06 15:20:00 -12.0  -12.0  1032.0 0.4 78 -
2015-01-06 14:50:00 -12.0  -15.0  1032.0 1.3 78 -
2015-01-06 14:20:00 -12.0  -13.8  1032.0 0.9 78 -
2015-01-06 13:50:00 -12.0  -15.0  1032.0 1.3 78 -
2015-01-06 13:20:00 -12.0  -12.0  1032.0 0.4 72 -
2015-01-06 12:50:00 -13.0  -16.1  1032.0 1.3 84 -
2015-01-06 12:20:00 -13.0  -16.1  1032.0 1.3 78 -
2015-01-06 11:50:00 -14.0  -16.0  1032.0 0.9 77 -
2015-01-06 11:20:00 -15.0  -17.1  1032.0 0.9 77 -
2015-01-06 10:50:00 -15.0  -18.4  1032.0 1.3 77 -
2015-01-06 10:20:00 -16.0  -18.2  1031.0 0.9 84 -
2015-01-06 09:50:00 -17.0  -22.7  1031.0 2.2 84 -
2015-01-06 09:20:00 -17.0  -19.3  1031.0 0.9 84 -
2015-01-06 08:50:00 -17.0  -22.7  1031.0 2.2 84 -
2015-01-06 08:20:00 -17.0  -20.6  1031.0 1.3 84 -
2015-01-06 07:50:00 -17.0  -20.6  1030.0 1.3 84 -
2015-01-06 07:20:00 -16.0  -19.5  1030.0 1.3 84 -
2015-01-06 06:50:00 -16.0  -21.5  1030.0 2.2 84 -
2015-01-06 06:20:00 -16.0  -21.5  1030.0 2.2 84 -
2015-01-06 05:50:00 -16.0  -21.5  1030.0 2.2 84 -
2015-01-06 05:20:00 -15.0  -18.4  1030.0 1.3 77 -
2015-01-06 04:50:00 -15.0  -18.4  1030.0 1.3 77 -
2015-01-06 04:20:00 -15.0  -20.3  1030.0 2.2 84 -
2015-01-06 03:50:00 -15.0  -18.4  1029.0 1.3 84 -
2015-01-06 03:20:00 -15.0  -18.4  1029.0 1.3 84 -
2015-01-06 02:50:00 -15.0  -20.3  1029.0 2.2 84 -
2015-01-06 02:20:00 -15.0  -20.3  1028.0 2.2 84 -
2015-01-06 01:50:00 -15.0  -20.3  1028.0 2.2 84 -
2015-01-06 01:20:00 -14.0  -19.1  1028.0 2.2 77 -
2015-01-06 00:50:00 -14.0  -21.1  1028.0 3.6 77 -
2015-01-06 00:20:00 -14.0  -19.9  1028.0 2.7 77 -
Unit conversions: